createdAt,value
2017-12-02T00:01:29.725Z,95528.31
2017-12-02T00:03:57.200Z,95525.97
2017-12-02T00:06:24.689Z,95533.24
2017-12-02T00:08:52.216Z,95528.58
2017-12-02T00:11:19.719Z,95532.78
2017-12-02T00:13:47.188Z,95529.80
2017-12-02T00:16:14.678Z,95527.78
2017-12-02T00:18:42.176Z,95523.16
2017-12-02T00:21:09.678Z,95529.92
2017-12-02T00:23:37.153Z,95531.23
2017-12-02T00:26:04.641Z,95539.50
2017-12-02T00:28:32.112Z,95530.27
2017-12-02T00:30:59.596Z,95523.93
2017-12-02T00:33:27.061Z,95529.83
2017-12-02T00:35:54.548Z,95533.09
2017-12-02T00:38:22.012Z,95535.34
2017-12-02T00:40:49.496Z,95529.00
2017-12-02T00:43:16.961Z,95534.62
2017-12-02T00:45:44.457Z,95541.16
2017-12-02T00:48:11.984Z,95543.95
2017-12-02T00:50:39.488Z,95543.45
2017-12-02T00:53:06.957Z,95543.52
2017-12-02T00:55:34.501Z,95551.11
2017-12-02T00:58:01.968Z,95546.88
2017-12-02T01:00:29.452Z,95549.67
2017-12-02T01:02:56.921Z,95551.03
2017-12-02T01:05:24.409Z,95554.62
2017-12-02T01:07:51.873Z,95561.09
2017-12-02T01:10:19.341Z,95570.20
2017-12-02T01:12:46.830Z,95581.95
2017-12-02T01:15:14.384Z,95586.41
2017-12-02T01:17:41.868Z,95592.46
2017-12-02T01:20:09.349Z,95594.03
2017-12-02T01:22:36.885Z,95596.30
2017-12-02T01:25:04.359Z,95601.53
2017-12-02T01:27:31.846Z,95605.78
2017-12-02T01:29:59.321Z,95604.09
2017-12-02T01:32:26.821Z,95607.55
2017-12-02T01:34:54.359Z,95609.28
2017-12-02T01:37:21.799Z,95616.33
2017-12-02T01:39:49.265Z,95620.61
2017-12-02T01:42:16.752Z,95625.41
2017-12-02T01:44:44.225Z,95632.64
2017-12-02T01:47:11.717Z,95634.36
2017-12-02T01:49:39.189Z,95636.99
2017-12-02T01:52:06.673Z,95633.02
2017-12-02T01:54:34.869Z,95638.84
2017-12-02T01:57:02.365Z,95633.22
2017-12-02T01:59:29.876Z,95637.12
2017-12-02T02:01:57.361Z,95636.66
2017-12-02T02:04:24.839Z,95634.91
2017-12-02T02:06:52.325Z,95637.47
2017-12-02T02:09:19.793Z,95642.80
2017-12-02T02:11:47.278Z,95634.87
2017-12-02T02:14:14.753Z,95644.75
2017-12-02T02:16:42.237Z,95638.51
2017-12-02T02:19:09.708Z,95645.02
2017-12-02T02:21:37.201Z,95647.85
2017-12-02T02:24:04.677Z,95648.86
2017-12-02T02:26:33.004Z,95652.64
2017-12-02T02:29:00.476Z,95651.56
2017-12-02T02:31:27.959Z,95646.73
2017-12-02T02:33:55.425Z,95639.80
2017-12-02T02:36:22.915Z,95639.66
2017-12-02T02:38:50.382Z,95644.45
2017-12-02T02:41:17.893Z,95646.06
2017-12-02T02:43:45.361Z,95647.52
2017-12-02T02:46:12.844Z,95649.61
2017-12-02T02:48:40.312Z,95651.23
2017-12-02T02:51:07.800Z,95655.07
2017-12-02T02:53:35.274Z,95655.61
2017-12-02T02:56:02.762Z,95651.33
2017-12-02T02:58:30.233Z,95651.77
2017-12-02T03:00:57.716Z,95650.18
2017-12-02T03:03:25.180Z,95655.78
2017-12-02T03:05:52.954Z,95659.05
2017-12-02T03:08:20.437Z,95660.09
2017-12-02T03:10:47.900Z,95662.36
2017-12-02T03:13:15.385Z,95668.69
2017-12-02T03:15:42.854Z,95673.15
2017-12-02T03:18:10.340Z,95678.05
2017-12-02T03:20:37.808Z,95685.26
2017-12-02T03:23:05.301Z,95684.55
2017-12-02T03:25:32.834Z,95692.03
2017-12-02T03:28:00.329Z,95694.45
2017-12-02T03:30:27.801Z,95696.27
2017-12-02T03:32:55.285Z,95701.16
2017-12-02T03:35:22.757Z,95703.75
2017-12-02T03:37:50.265Z,95704.28
2017-12-02T03:40:17.740Z,95702.19
2017-12-02T03:42:45.224Z,95704.15
2017-12-02T03:45:12.700Z,95704.80
2017-12-02T03:47:40.189Z,95711.44
2017-12-02T03:50:07.656Z,95716.58
2017-12-02T03:52:35.149Z,95721.09
2017-12-02T03:55:02.628Z,95717.73
2017-12-02T03:57:30.112Z,95719.17
2017-12-02T03:59:57.588Z,95720.89
2017-12-02T04:02:25.068Z,95728.14
2017-12-02T04:04:52.536Z,95728.89
2017-12-02T04:07:20.032Z,95732.52
2017-12-02T04:09:47.621Z,95734.17
2017-12-02T04:12:15.113Z,95732.25
2017-12-02T04:14:42.591Z,95734.05
2017-12-02T04:17:10.151Z,95734.11
2017-12-02T04:19:37.633Z,95734.89
2017-12-02T04:22:05.119Z,95736.11
2017-12-02T04:24:32.613Z,95743.56
2017-12-02T04:27:00.120Z,95743.44
2017-12-02T04:29:27.592Z,95747.66
2017-12-02T04:31:55.082Z,95742.84
2017-12-02T04:34:22.564Z,95742.25
2017-12-02T04:36:50.116Z,95733.33
2017-12-02T04:39:17.625Z,95740.87
2017-12-02T04:41:45.105Z,95748.94
2017-12-02T04:44:12.733Z,95755.03
2017-12-02T04:46:40.242Z,95754.21
2017-12-02T04:49:07.733Z,95757.48
2017-12-02T04:51:35.205Z,95760.06
2017-12-02T04:54:02.684Z,95769.13
2017-12-02T04:56:30.153Z,95769.66
2017-12-02T04:58:57.633Z,95768.67
2017-12-02T05:01:25.109Z,95762.39
2017-12-02T05:03:52.597Z,95771.95
2017-12-02T05:06:20.096Z,95775.31
2017-12-02T05:08:47.585Z,95778.08
2017-12-02T05:11:15.058Z,95777.38
2017-12-02T05:13:42.556Z,95778.73
2017-12-02T05:16:10.049Z,95779.88
2017-12-02T05:18:37.538Z,95784.58
2017-12-02T05:21:05.005Z,95781.06
2017-12-02T05:23:32.487Z,95780.03
2017-12-02T05:25:59.956Z,95782.09
2017-12-02T05:28:27.535Z,95779.09
2017-12-02T05:30:55.000Z,95777.95
2017-12-02T05:33:22.505Z,95784.06
2017-12-02T05:35:49.981Z,95781.43
2017-12-02T05:38:17.475Z,95783.19
2017-12-02T05:40:44.963Z,95790.27
2017-12-02T05:43:12.449Z,95795.84
2017-12-02T05:45:39.942Z,95804.78
2017-12-02T05:48:07.500Z,95807.25
2017-12-02T05:50:35.445Z,95806.38
2017-12-02T05:53:02.936Z,95811.17
2017-12-02T05:55:30.403Z,95815.87
2017-12-02T05:57:57.885Z,95815.19
2017-12-02T06:00:25.349Z,95816.30
2017-12-02T06:02:52.837Z,95819.11
2017-12-02T06:05:20.305Z,95824.26
2017-12-02T06:07:47.821Z,95823.18
2017-12-02T06:10:15.288Z,95826.98
2017-12-02T06:12:42.782Z,95832.21
2017-12-02T06:15:10.495Z,95832.75
2017-12-02T06:17:37.981Z,95834.88
2017-12-02T06:20:05.462Z,95835.17
2017-12-02T06:22:32.953Z,95836.89
2017-12-02T06:25:00.424Z,95836.75
2017-12-02T06:27:27.916Z,95840.03
2017-12-02T06:29:55.384Z,95841.98
2017-12-02T06:32:22.868Z,95844.91
2017-12-02T06:34:50.345Z,95843.59
2017-12-02T06:37:17.861Z,95851.51
2017-12-02T06:39:45.344Z,95847.50
2017-12-02T06:42:12.828Z,95858.70
2017-12-02T06:44:40.305Z,95854.48
2017-12-02T06:47:07.802Z,95855.48
2017-12-02T06:49:35.276Z,95857.27
2017-12-02T06:52:02.745Z,95857.98
2017-12-02T06:54:30.276Z,95868.91
2017-12-02T06:56:57.748Z,95874.33
2017-12-02T06:59:25.236Z,95876.92
2017-12-02T07:01:52.713Z,95878.02
2017-12-02T07:04:20.206Z,95883.80
2017-12-02T07:06:47.684Z,95886.25
2017-12-02T07:09:15.193Z,95884.16
2017-12-02T07:11:42.682Z,95888.19
2017-12-02T07:14:10.170Z,95887.89
2017-12-02T07:16:37.641Z,95899.23
2017-12-02T07:19:05.129Z,95899.75
2017-12-02T07:21:32.597Z,95903.30
2017-12-02T07:24:00.080Z,95905.05
2017-12-02T07:26:27.550Z,95906.23
2017-12-02T07:28:55.052Z,95903.30
2017-12-02T07:31:22.521Z,95905.67
2017-12-02T07:33:50.036Z,95906.27
2017-12-02T07:36:17.544Z,95910.89
2017-12-02T07:38:45.053Z,95911.67
2017-12-02T07:41:12.521Z,95911.39
2017-12-02T07:43:40.004Z,95913.22
2017-12-02T07:46:07.493Z,95918.61
2017-12-02T07:48:34.980Z,95914.25
2017-12-02T07:51:02.454Z,95915.03
2017-12-02T07:53:29.940Z,95916.52
2017-12-02T07:55:57.414Z,95917.25
2017-12-02T07:58:24.905Z,95921.84
2017-12-02T08:00:52.381Z,95923.54
2017-12-02T08:03:19.870Z,95928.66
2017-12-02T08:05:47.341Z,95919.77
2017-12-02T08:08:14.829Z,95920.39
2017-12-02T08:10:42.313Z,95923.03
2017-12-02T08:13:09.793Z,95921.03
2017-12-02T08:15:37.264Z,95926.27
2017-12-02T08:18:04.757Z,95922.31
2017-12-02T08:20:32.224Z,95920.84
2017-12-02T08:22:59.712Z,95921.61
2017-12-02T08:25:27.248Z,95924.95
2017-12-02T08:27:54.738Z,95928.38
2017-12-02T08:30:22.214Z,95933.50
2017-12-02T08:32:49.770Z,95933.42
2017-12-02T08:35:17.237Z,95929.14
2017-12-02T08:37:44.708Z,95940.57
2017-12-02T08:40:12.212Z,95949.42
2017-12-02T08:42:39.682Z,95945.74
2017-12-02T08:45:07.173Z,95953.01
2017-12-02T08:47:34.644Z,95952.93
2017-12-02T08:50:02.153Z,95957.23
2017-12-02T08:52:29.625Z,95956.42
2017-12-02T08:54:57.113Z,95961.56
2017-12-02T08:57:24.585Z,95964.84
2017-12-02T08:59:52.097Z,95967.16
2017-12-02T09:02:19.564Z,95967.20
2017-12-02T09:04:47.063Z,95955.99
2017-12-02T09:07:14.549Z,95956.45
2017-12-02T09:09:42.033Z,95958.27
2017-12-02T09:12:09.505Z,95961.95
2017-12-02T09:14:37.019Z,95966.97
2017-12-02T09:17:04.484Z,95976.60
2017-12-02T09:19:31.969Z,95976.08
2017-12-02T09:21:59.438Z,95971.39
2017-12-02T09:24:26.917Z,95973.50
2017-12-02T09:26:54.381Z,95975.20
2017-12-02T09:29:21.861Z,95977.36
2017-12-02T09:31:49.329Z,95979.91
2017-12-02T09:34:16.814Z,95977.73
2017-12-02T09:36:44.276Z,95979.87
2017-12-02T09:39:11.757Z,95981.28
2017-12-02T09:41:39.221Z,95983.98
2017-12-02T09:44:06.777Z,95981.37
2017-12-02T09:46:34.236Z,95973.78
2017-12-02T09:49:01.721Z,95973.70
2017-12-02T09:51:29.238Z,95977.05
2017-12-02T09:53:56.723Z,95970.94
2017-12-02T09:56:24.283Z,95978.72
2017-12-02T09:58:51.780Z,95972.44
2017-12-02T10:01:19.272Z,95963.44
2017-12-02T10:03:46.757Z,95967.44
2017-12-02T10:06:14.223Z,95961.99
2017-12-02T10:08:41.704Z,95962.39
2017-12-02T10:11:09.165Z,95961.75
2017-12-02T10:13:36.660Z,95957.80
2017-12-02T10:16:04.184Z,95948.73
2017-12-02T10:18:31.625Z,95951.51
2017-12-02T10:20:59.117Z,95945.19
2017-12-02T10:23:26.621Z,95948.92
2017-12-02T10:25:54.101Z,95945.91
2017-12-02T10:28:21.568Z,95941.80
2017-12-02T10:30:49.062Z,95944.91
2017-12-02T10:33:16.526Z,95943.12
2017-12-02T10:35:44.014Z,95949.29
2017-12-02T10:38:11.561Z,95939.48
2017-12-02T10:40:39.049Z,95940.20
2017-12-02T10:43:06.608Z,95941.47
2017-12-02T10:45:34.090Z,95944.87
2017-12-02T10:48:01.553Z,95950.81
2017-12-02T10:50:29.045Z,95952.41
2017-12-02T10:52:56.517Z,95959.83
2017-12-02T10:55:24.005Z,95963.02
2017-12-02T10:57:51.502Z,95955.11
2017-12-02T11:00:19.233Z,95950.17
2017-12-02T11:02:46.701Z,95949.70
2017-12-02T11:05:14.248Z,95950.20
2017-12-02T11:07:42.452Z,95953.18
2017-12-02T11:10:09.937Z,95956.39
2017-12-02T11:12:37.414Z,95958.41
2017-12-02T11:15:04.909Z,95955.88
2017-12-02T11:17:32.521Z,95960.37
2017-12-02T11:20:00.017Z,95964.96
2017-12-02T11:22:27.490Z,95959.09
2017-12-02T11:24:54.966Z,95953.65
2017-12-02T11:27:22.444Z,95945.41
2017-12-02T11:29:49.909Z,95945.73
2017-12-02T11:32:17.525Z,95954.26
2017-12-02T11:34:44.993Z,95941.88
2017-12-02T11:37:12.516Z,95941.11
2017-12-02T11:39:39.989Z,95938.67
2017-12-02T11:42:07.477Z,95935.77
2017-12-02T11:44:34.955Z,95919.56
2017-12-02T11:47:03.076Z,95929.74
2017-12-02T11:49:30.550Z,95928.58
2017-12-02T11:51:58.033Z,95932.97
2017-12-02T11:54:25.497Z,95926.08
2017-12-02T11:56:52.984Z,95935.06
2017-12-02T11:59:20.452Z,95933.98
2017-12-02T12:01:47.941Z,95932.77
2017-12-02T12:04:15.408Z,95927.07
2017-12-02T12:06:42.893Z,95929.23
2017-12-02T12:09:10.356Z,95928.53
2017-12-02T12:11:37.833Z,95925.51
2017-12-02T12:14:05.296Z,95934.72
2017-12-02T12:16:32.780Z,95926.02
2017-12-02T12:19:00.241Z,95928.08
2017-12-02T12:21:27.749Z,95932.14
2017-12-02T12:23:55.212Z,95934.91
2017-12-02T12:26:22.778Z,95936.14
2017-12-02T12:28:50.253Z,95938.17
2017-12-02T12:31:17.809Z,95935.86
2017-12-02T12:33:45.246Z,95938.44
2017-12-02T12:36:12.734Z,95939.22
2017-12-02T12:38:40.209Z,95936.75
2017-12-02T12:41:07.697Z,95932.80
2017-12-02T12:43:35.177Z,95933.95
2017-12-02T12:46:02.661Z,95934.64
2017-12-02T12:48:30.144Z,95936.60
2017-12-02T12:50:57.628Z,95939.11
2017-12-02T12:53:25.375Z,95939.30
2017-12-02T12:55:52.864Z,95939.23
2017-12-02T12:58:20.332Z,95944.36
2017-12-02T13:00:47.816Z,95948.23
2017-12-02T13:03:15.284Z,95941.52
2017-12-02T13:05:42.777Z,95946.33
2017-12-02T13:08:10.361Z,95953.20
2017-12-02T13:10:37.849Z,95953.83
2017-12-02T13:13:05.327Z,95954.89
2017-12-02T13:15:32.828Z,95962.48
2017-12-02T13:18:00.322Z,95960.23
2017-12-02T13:20:27.797Z,95962.76
2017-12-02T13:22:55.301Z,95962.40
2017-12-02T13:25:23.036Z,95965.00
2017-12-02T13:27:50.528Z,95968.06
2017-12-02T13:30:17.994Z,95965.66
2017-12-02T13:32:45.479Z,95968.33
2017-12-02T13:35:12.957Z,95972.34
2017-12-02T13:37:40.453Z,95965.42
2017-12-02T13:40:07.958Z,95959.17
2017-12-02T13:42:35.451Z,95958.45
2017-12-02T13:45:03.873Z,95967.09
2017-12-02T13:47:31.366Z,95971.02
2017-12-02T13:49:59.637Z,95976.56
2017-12-02T13:52:27.119Z,95981.73
2017-12-02T13:54:54.594Z,95978.45
2017-12-02T13:57:22.121Z,95975.45
2017-12-02T13:59:49.589Z,95980.50
2017-12-02T14:02:17.076Z,95987.95
2017-12-02T14:04:44.549Z,95991.55
2017-12-02T14:07:12.045Z,95986.27
2017-12-02T14:09:39.521Z,95983.39
2017-12-02T14:12:07.004Z,95980.67
2017-12-02T14:14:34.473Z,95984.39
2017-12-02T14:17:02.097Z,95992.89
2017-12-02T14:19:29.841Z,95996.76
2017-12-02T14:21:57.326Z,95995.22
2017-12-02T14:24:24.799Z,96001.34
2017-12-02T14:26:52.309Z,96005.33
2017-12-02T14:29:19.790Z,96002.16
2017-12-02T14:31:47.286Z,96004.98
2017-12-02T14:34:14.756Z,96003.97
2017-12-02T14:36:42.256Z,96006.90
2017-12-02T14:39:09.769Z,96011.52
2017-12-02T14:41:37.229Z,96011.63
2017-12-02T14:44:04.708Z,96015.38
2017-12-02T14:46:32.197Z,96019.38
2017-12-02T14:48:59.682Z,96015.06
2017-12-02T14:51:28.173Z,96017.08
2017-12-02T14:53:55.681Z,96017.44
2017-12-02T14:56:23.147Z,96020.45
2017-12-02T14:58:51.127Z,96026.05
2017-12-02T15:01:18.613Z,96023.48
2017-12-02T15:03:46.109Z,96020.51
2017-12-02T15:06:13.581Z,96026.31
2017-12-02T15:08:41.665Z,96026.85
2017-12-02T15:11:09.137Z,96025.30
2017-12-02T15:13:36.681Z,96024.36
2017-12-02T15:16:04.177Z,96022.83
2017-12-02T15:18:31.688Z,96027.75
2017-12-02T15:20:59.165Z,96023.44
2017-12-02T15:23:26.727Z,96034.28
2017-12-02T15:25:54.205Z,96032.28
2017-12-02T15:28:21.696Z,96022.05
2017-12-02T15:30:49.196Z,96023.79
2017-12-02T15:33:17.537Z,96028.53
2017-12-02T15:35:45.016Z,96038.36
2017-12-02T15:38:12.533Z,96028.23
2017-12-02T15:40:40.010Z,96029.87
2017-12-02T15:43:07.502Z,96025.20
2017-12-02T15:45:34.980Z,96024.71
2017-12-02T15:48:04.218Z,96027.28
2017-12-02T15:50:31.684Z,96023.03
2017-12-02T15:52:59.212Z,96017.41
2017-12-02T15:55:26.694Z,96017.98
2017-12-02T15:57:54.218Z,96033.75
2017-12-02T16:00:21.692Z,96032.88
2017-12-02T16:02:49.184Z,96031.12
2017-12-02T16:05:16.665Z,96038.39
2017-12-02T16:07:45.041Z,96034.28
2017-12-02T16:10:12.557Z,96039.08
2017-12-02T16:12:40.026Z,96040.77
2017-12-02T16:15:07.521Z,96042.02
2017-12-02T16:17:34.992Z,96042.09
2017-12-02T16:20:02.488Z,96045.75
2017-12-02T16:22:29.952Z,96045.40
2017-12-02T16:24:57.436Z,96042.95
2017-12-02T16:27:24.909Z,96041.70
2017-12-02T16:29:52.472Z,96046.83
2017-12-02T16:32:19.947Z,96047.41
2017-12-02T16:34:47.428Z,96046.14
2017-12-02T16:37:14.892Z,96050.80
2017-12-02T16:39:42.377Z,96044.52
2017-12-02T16:42:09.845Z,96046.95
2017-12-02T16:44:37.344Z,96041.38
2017-12-02T16:47:04.810Z,96048.38
2017-12-02T16:49:32.295Z,96045.48
2017-12-02T16:51:59.786Z,96052.50
2017-12-02T16:54:27.277Z,96051.66
2017-12-02T16:56:54.805Z,96050.47
2017-12-02T16:59:22.281Z,96056.55
2017-12-02T17:01:49.801Z,96058.20
2017-12-02T17:04:17.281Z,96048.71
2017-12-02T17:06:44.832Z,96051.97
2017-12-02T17:09:12.305Z,96047.19
2017-12-02T17:11:39.812Z,96044.69
2017-12-02T17:14:07.436Z,96055.02
2017-12-02T17:16:34.929Z,96053.19
2017-12-02T17:19:02.420Z,96061.53
2017-12-02T17:21:30.869Z,96062.79
2017-12-02T17:23:58.333Z,96057.34
2017-12-02T17:26:26.804Z,96057.36
2017-12-02T17:28:54.347Z,96059.68
2017-12-02T17:31:22.740Z,96057.09
2017-12-02T17:33:50.218Z,96060.29
2017-12-02T17:36:17.707Z,96054.52
2017-12-02T17:38:45.199Z,96056.14
2017-12-02T17:41:12.701Z,96052.39
2017-12-02T17:43:40.169Z,96048.20
2017-12-02T17:46:07.653Z,96053.23
2017-12-02T17:48:35.121Z,96056.88
2017-12-02T17:51:02.607Z,96054.41
2017-12-02T17:53:30.071Z,96051.02
2017-12-02T17:55:57.556Z,96047.64
2017-12-02T17:58:25.033Z,96048.62
2017-12-02T18:00:52.516Z,96050.36
2017-12-02T18:03:19.985Z,96054.84
2017-12-02T18:05:47.477Z,96058.56
2017-12-02T18:08:14.949Z,96058.41
2017-12-02T18:10:42.445Z,96056.94
2017-12-02T18:13:09.913Z,96054.84
2017-12-02T18:15:37.403Z,96068.79
2017-12-02T18:18:04.874Z,96058.09
2017-12-02T18:20:32.341Z,96070.16
2017-12-02T18:22:59.846Z,96070.52
2017-12-02T18:25:27.312Z,96067.27
2017-12-02T18:27:54.808Z,96071.80
2017-12-02T18:30:22.282Z,96073.51
2017-12-02T18:32:50.306Z,96073.68
2017-12-02T18:35:17.772Z,96073.39
2017-12-02T18:37:45.257Z,96076.00
2017-12-02T18:40:12.730Z,96080.53
2017-12-02T18:42:40.221Z,96072.72
2017-12-02T18:45:07.688Z,96068.77
2017-12-02T18:47:35.205Z,96072.26
2017-12-02T18:50:02.669Z,96067.20
2017-12-02T18:52:30.399Z,96067.44
2017-12-02T18:54:57.939Z,96065.20
2017-12-02T18:57:25.433Z,96070.96
2017-12-02T18:59:52.905Z,96075.59
2017-12-02T19:02:20.392Z,96077.39
2017-12-02T19:04:47.892Z,96077.16
2017-12-02T19:07:15.376Z,96074.69
2017-12-02T19:09:42.853Z,96075.59
2017-12-02T19:12:10.336Z,96076.30
2017-12-02T19:14:37.810Z,96069.27
2017-12-02T19:17:05.300Z,96071.57
2017-12-02T19:19:32.769Z,96072.89
2017-12-02T19:22:00.269Z,96068.91
2017-12-02T19:24:27.752Z,96068.59
2017-12-02T19:26:55.246Z,96069.41
2017-12-02T19:29:23.534Z,96072.66
2017-12-02T19:31:51.026Z,96073.03
2017-12-02T19:34:18.500Z,96075.19
2017-12-02T19:36:45.992Z,96069.91
2017-12-02T19:39:13.456Z,96073.72
2017-12-02T19:41:40.948Z,96074.55
2017-12-02T19:44:08.417Z,96077.20
2017-12-02T19:46:35.901Z,96077.41
2017-12-02T19:49:03.382Z,96077.01
2017-12-02T19:51:30.868Z,96078.78
2017-12-02T19:53:58.700Z,96079.28
2017-12-02T19:56:26.189Z,96084.56
2017-12-02T19:58:53.665Z,96084.92
2017-12-02T20:01:21.156Z,96086.94
2017-12-02T20:03:49.218Z,96086.66
2017-12-02T20:06:16.710Z,96086.81
2017-12-02T20:08:44.542Z,96090.87
2017-12-02T20:11:12.012Z,96094.16
2017-12-02T20:13:39.513Z,96087.24
2017-12-02T20:16:06.989Z,96087.94
2017-12-02T20:18:34.479Z,96088.88
2017-12-02T20:21:01.958Z,96080.94
2017-12-02T20:23:29.446Z,96087.37
2017-12-02T20:25:56.921Z,96080.73
2017-12-02T20:28:24.410Z,96085.90
2017-12-02T20:30:51.929Z,96080.26
2017-12-02T20:33:19.425Z,96076.99
2017-12-02T20:35:46.908Z,96081.59
2017-12-02T20:38:14.398Z,96077.15
2017-12-02T20:40:41.864Z,96088.30
2017-12-02T20:43:09.349Z,96082.87
2017-12-02T20:45:36.820Z,96078.88
2017-12-02T20:48:04.302Z,96081.02
2017-12-02T20:50:31.765Z,96070.28
2017-12-02T20:52:59.255Z,96076.36
2017-12-02T20:55:26.721Z,96080.91
2017-12-02T20:57:54.217Z,96079.16
2017-12-02T21:00:21.684Z,96085.78
2017-12-02T21:02:49.172Z,96080.14
2017-12-02T21:05:16.637Z,96077.30
2017-12-02T21:07:44.159Z,96087.64
2017-12-02T21:10:11.645Z,96079.77
2017-12-02T21:12:39.137Z,96074.83
2017-12-02T21:15:06.609Z,96078.01
2017-12-02T21:17:34.092Z,96071.80
2017-12-02T21:20:01.560Z,96074.83
2017-12-02T21:22:29.053Z,96080.27
2017-12-02T21:24:56.524Z,96077.19
2017-12-02T21:27:24.371Z,96084.71
2017-12-02T21:29:51.850Z,96088.35
2017-12-02T21:32:19.348Z,96089.37
2017-12-02T21:34:46.821Z,96093.27
2017-12-02T21:37:14.313Z,96097.14
2017-12-02T21:39:41.797Z,96094.09
2017-12-02T21:42:09.633Z,96096.96
2017-12-02T21:44:37.112Z,96091.47
2017-12-02T21:47:04.609Z,96096.10
2017-12-02T21:49:32.082Z,96099.19
2017-12-02T21:51:59.607Z,96096.15
2017-12-02T21:54:27.077Z,96099.66
2017-12-02T21:56:54.558Z,96096.03
2017-12-02T21:59:22.045Z,96097.16
2017-12-02T22:01:49.513Z,96097.58
2017-12-02T22:04:17.001Z,96097.08
2017-12-02T22:06:44.804Z,96099.34
2017-12-02T22:09:12.284Z,96097.73
2017-12-02T22:11:39.760Z,96095.86
2017-12-02T22:14:07.249Z,96097.71
2017-12-02T22:16:34.717Z,96101.84
2017-12-02T22:19:02.202Z,96103.76
2017-12-02T22:21:29.685Z,96102.96
2017-12-02T22:23:57.181Z,96106.59
2017-12-02T22:26:24.717Z,96097.84
2017-12-02T22:28:52.233Z,96094.98
2017-12-02T22:31:19.700Z,96102.42
2017-12-02T22:33:47.188Z,96102.78
2017-12-02T22:36:14.675Z,96101.41
2017-12-02T22:38:42.171Z,96097.33
2017-12-02T22:41:09.641Z,96094.53
2017-12-02T22:43:37.132Z,96093.86
2017-12-02T22:46:04.598Z,96098.44
2017-12-02T22:48:32.082Z,96092.98
2017-12-02T22:50:59.553Z,96097.13
2017-12-02T22:53:27.053Z,96091.31
2017-12-02T22:55:54.520Z,96099.20
2017-12-02T22:58:23.103Z,96100.50
2017-12-02T23:00:50.576Z,96093.92
2017-12-02T23:03:18.068Z,96094.77
2017-12-02T23:05:45.548Z,96091.16
2017-12-02T23:08:13.044Z,96092.77
2017-12-02T23:10:40.524Z,96084.56
2017-12-02T23:13:08.017Z,96087.76
2017-12-02T23:15:35.517Z,96097.22
2017-12-02T23:18:03.002Z,96092.49
2017-12-02T23:20:30.470Z,96089.81
2017-12-02T23:22:57.960Z,96093.65
2017-12-02T23:25:25.432Z,96088.12
2017-12-02T23:27:52.921Z,96089.84
2017-12-02T23:30:20.405Z,96092.59
2017-12-02T23:32:47.888Z,96091.75
2017-12-02T23:35:15.373Z,96090.95
2017-12-02T23:37:42.892Z,96084.77
2017-12-02T23:40:10.369Z,96078.89
2017-12-02T23:42:37.861Z,96076.84
2017-12-02T23:45:05.332Z,96074.66
2017-12-02T23:47:32.805Z,96068.92
2017-12-02T23:50:00.289Z,96072.25
2017-12-02T23:52:27.760Z,96070.34
2017-12-02T23:54:55.264Z,96067.84
2017-12-02T23:57:22.736Z,96065.79
2017-12-02T23:59:50.221Z,96070.75
